createdAt,value
2022-11-04T00:01:21.041Z,91.24
2022-11-04T00:03:48.697Z,91.45
2022-11-04T00:06:17.183Z,91.83
2022-11-04T00:08:57.071Z,92.24
2022-11-04T00:11:43.930Z,92.32
2022-11-04T00:14:11.995Z,92.95
2022-11-04T00:16:58.507Z,92.97
2022-11-04T00:19:26.049Z,93.02
2022-11-04T00:22:12.278Z,93.41
2022-11-04T00:24:58.539Z,93.72
2022-11-04T00:27:44.261Z,93.73
2022-11-04T00:30:12.673Z,93.52
2022-11-04T00:32:58.405Z,93.74
2022-11-04T00:35:25.458Z,93.61
2022-11-04T00:37:52.859Z,93.87
2022-11-04T00:40:20.467Z,94.02
2022-11-04T00:42:47.637Z,94.37
2022-11-04T00:45:15.100Z,94.04
2022-11-04T00:47:43.481Z,94.30
2022-11-04T00:50:10.928Z,94.40
2022-11-04T00:52:38.077Z,94.35
2022-11-04T00:55:06.241Z,94.54
2022-11-04T00:57:33.381Z,94.81
2022-11-04T01:00:01.681Z,94.80
2022-11-04T01:02:29.058Z,95.13
2022-11-04T01:04:56.580Z,94.89
2022-11-04T01:07:23.928Z,95.09
2022-11-04T01:09:50.983Z,94.95
2022-11-04T01:12:18.130Z,94.72
2022-11-04T01:14:45.547Z,94.67
2022-11-04T01:17:12.661Z,94.75
2022-11-04T01:19:39.669Z,94.62
2022-11-04T01:22:06.750Z,94.81
2022-11-04T01:24:33.896Z,94.69
2022-11-04T01:27:01.038Z,94.88
2022-11-04T01:29:28.281Z,94.85
2022-11-04T01:31:55.438Z,94.87
2022-11-04T01:34:22.800Z,95.10
2022-11-04T01:36:50.156Z,95.16
2022-11-04T01:39:17.389Z,95.38
2022-11-04T01:41:44.636Z,95.84
2022-11-04T01:44:43.144Z,96.17
2022-11-04T01:47:23.375Z,96.16
2022-11-04T01:49:58.715Z,95.87
2022-11-04T01:52:30.799Z,95.58
2022-11-04T01:55:01.383Z,95.49
2022-11-04T01:57:37.791Z,95.45
2022-11-04T02:00:07.097Z,95.63
2022-11-04T02:03:05.414Z,95.65
2022-11-04T02:05:33.239Z,96.03
2022-11-04T02:08:02.678Z,96.19
2022-11-04T02:10:31.638Z,96.15
2022-11-04T02:13:01.677Z,96.04
2022-11-04T02:15:37.819Z,96.01
2022-11-04T02:18:07.818Z,96.33
2022-11-04T02:20:55.358Z,96.44
2022-11-04T02:23:48.911Z,96.80
2022-11-04T02:26:34.184Z,97.08
2022-11-04T02:29:31.358Z,97.44
2022-11-04T02:32:13.037Z,97.15
2022-11-04T02:35:03.119Z,97.36
2022-11-04T02:38:11.249Z,97.35
2022-11-04T02:40:53.860Z,97.04
2022-11-04T02:43:20.982Z,97.02
2022-11-04T02:45:51.841Z,96.85
2022-11-04T02:48:24.603Z,97.36
2022-11-04T02:51:00.612Z,96.97
2022-11-04T02:53:32.548Z,96.91
2022-11-04T02:56:01.098Z,96.77
2022-11-04T02:58:33.166Z,96.92
2022-11-04T03:01:02.029Z,96.91
2022-11-04T03:03:36.383Z,96.97
2022-11-04T03:06:05.498Z,97.06
2022-11-04T03:08:39.086Z,97.62
2022-11-04T03:11:12.970Z,97.52
2022-11-04T03:14:04.192Z,97.44
2022-11-04T03:16:46.602Z,97.72
2022-11-04T03:19:17.828Z,97.90
2022-11-04T03:21:57.819Z,97.72
2022-11-04T03:24:25.676Z,97.75
2022-11-04T03:27:31.222Z,98.02
2022-11-04T03:30:25.395Z,97.91
2022-11-04T03:33:11.987Z,98.10
2022-11-04T03:35:39.378Z,97.99
2022-11-04T03:38:06.723Z,98.12
2022-11-04T03:40:35.118Z,98.28
2022-11-04T03:43:17.008Z,98.34
2022-11-04T03:45:44.359Z,98.26
2022-11-04T03:48:12.616Z,97.98
2022-11-04T03:50:44.846Z,98.06
2022-11-04T03:53:14.158Z,98.39
2022-11-04T03:55:51.697Z,98.26
2022-11-04T03:58:34.188Z,98.08
2022-11-04T04:01:30.928Z,97.95
2022-11-04T04:04:31.676Z,97.91
2022-11-04T04:07:03.199Z,98.08
2022-11-04T04:09:39.903Z,98.11
2022-11-04T04:12:46.077Z,98.23
2022-11-04T04:15:23.532Z,98.38
2022-11-04T04:18:06.733Z,98.37
2022-11-04T04:20:36.568Z,98.28
2022-11-04T04:23:27.005Z,98.41
2022-11-04T04:26:14.618Z,98.43
2022-11-04T04:28:43.208Z,98.40
2022-11-04T04:31:12.298Z,98.76
2022-11-04T04:33:39.758Z,98.65
2022-11-04T04:36:09.977Z,98.80
2022-11-04T04:38:59.846Z,98.85
2022-11-04T04:41:48.620Z,99.24
2022-11-04T04:44:41.159Z,99.41
2022-11-04T04:47:10.165Z,99.45
2022-11-04T04:49:53.179Z,99.74
2022-11-04T04:52:21.525Z,99.64
2022-11-04T04:54:48.797Z,99.83
2022-11-04T04:57:16.361Z,99.83
2022-11-04T04:59:43.719Z,99.81
2022-11-04T05:02:11.521Z,99.89
2022-11-04T05:04:38.939Z,99.96
2022-11-04T05:07:08.339Z,99.91
2022-11-04T05:09:35.699Z,99.99
2022-11-04T05:12:03.180Z,99.96
2022-11-04T05:14:30.914Z,99.94
2022-11-04T05:16:58.365Z,100.00
2022-11-04T05:19:25.738Z,100.00
2022-11-04T05:21:53.498Z,99.94
2022-11-04T05:24:20.735Z,100.00
2022-11-04T05:26:47.997Z,100.00
2022-11-04T05:31:47.318Z,100.00
2022-11-04T05:34:14.987Z,100.00
2022-11-04T05:36:42.647Z,100.00
2022-11-04T05:39:12.930Z,100.00
2022-11-04T05:41:40.298Z,100.00
2022-11-04T05:44:10.006Z,100.00
2022-11-04T05:46:37.258Z,100.00
2022-11-04T05:49:05.665Z,100.00
2022-11-04T05:51:33.317Z,100.00
2022-11-04T05:54:00.979Z,100.00
2022-11-04T05:56:28.158Z,100.00
2022-11-04T05:58:55.799Z,100.00
2022-11-04T06:01:32.342Z,100.00
2022-11-04T06:04:01.767Z,100.00
2022-11-04T06:06:37.145Z,100.00
2022-11-04T06:09:05.729Z,100.00
2022-11-04T06:11:34.478Z,100.00
2022-11-04T06:14:02.334Z,100.00
2022-11-04T06:16:29.820Z,100.00
2022-11-04T06:19:01.468Z,100.00
2022-11-04T06:21:34.237Z,100.00
2022-11-04T06:24:02.638Z,100.00
2022-11-04T06:26:31.183Z,100.00
2022-11-04T06:28:58.332Z,100.00
2022-11-04T06:31:25.491Z,100.00
2022-11-04T06:33:52.864Z,100.00
2022-11-04T06:36:20.417Z,100.00
2022-11-04T06:38:48.064Z,100.00
2022-11-04T06:41:17.602Z,100.00
2022-11-04T06:43:45.019Z,100.00
2022-11-04T06:46:30.034Z,100.00
2022-11-04T06:48:57.756Z,100.00
2022-11-04T06:51:25.925Z,100.00
2022-11-04T06:53:53.280Z,100.00
2022-11-04T06:56:20.437Z,100.00
2022-11-04T06:58:51.572Z,100.00
2022-11-04T07:01:22.011Z,100.00
2022-11-04T07:03:51.698Z,100.00
2022-11-04T07:06:20.093Z,100.00
2022-11-04T07:08:51.238Z,100.00
2022-11-04T07:11:21.354Z,99.95
2022-11-04T07:13:50.000Z,99.99
2022-11-04T07:16:17.690Z,99.39
2022-11-04T07:18:45.158Z,99.23
2022-11-04T07:21:12.928Z,99.10
2022-11-04T07:23:39.995Z,98.78
2022-11-04T07:26:09.973Z,98.44
2022-11-04T07:28:37.341Z,98.20
2022-11-04T07:31:07.060Z,98.08
2022-11-04T07:33:35.212Z,97.98
2022-11-04T07:36:07.200Z,97.65
2022-11-04T07:38:34.639Z,97.29
2022-11-04T07:41:03.010Z,97.18
2022-11-04T07:43:31.045Z,96.98
2022-11-04T07:46:02.419Z,96.86
2022-11-04T07:48:30.198Z,96.76
2022-11-04T07:51:01.334Z,96.62
2022-11-04T07:53:30.239Z,96.34
2022-11-04T07:55:58.502Z,96.15
2022-11-04T07:58:26.279Z,96.13
2022-11-04T08:00:59.882Z,96.27
2022-11-04T08:03:27.624Z,96.06
2022-11-04T08:06:02.299Z,95.73
2022-11-04T08:08:30.177Z,95.64
2022-11-04T08:11:01.063Z,95.56
2022-11-04T08:13:29.755Z,95.29
2022-11-04T08:15:57.914Z,95.26
2022-11-04T08:18:25.060Z,95.22
2022-11-04T08:20:53.238Z,95.03
2022-11-04T08:23:23.163Z,94.90
2022-11-04T08:25:51.922Z,94.61
2022-11-04T08:28:20.260Z,94.38
2022-11-04T08:31:03.346Z,94.28
2022-11-04T08:33:33.102Z,94.14
2022-11-04T08:36:06.039Z,94.14
2022-11-04T08:38:34.752Z,93.99
2022-11-04T08:41:04.132Z,93.85
2022-11-04T08:43:31.688Z,93.65
2022-11-04T08:45:58.846Z,93.60
2022-11-04T08:48:26.399Z,93.50
2022-11-04T08:50:55.759Z,93.48
2022-11-04T08:53:23.471Z,93.42
2022-11-04T08:55:50.815Z,93.30
2022-11-04T08:58:19.095Z,93.25
2022-11-04T09:00:46.348Z,93.09
2022-11-04T09:03:14.883Z,92.72
2022-11-04T09:05:46.178Z,92.66
2022-11-04T09:08:14.663Z,92.67
2022-11-04T09:10:46.351Z,92.38
2022-11-04T09:13:15.968Z,92.34
2022-11-04T09:15:43.497Z,92.20
2022-11-04T09:18:11.743Z,92.28
2022-11-04T09:20:39.113Z,92.09
2022-11-04T09:23:07.110Z,91.94
2022-11-04T09:25:35.924Z,91.23
2022-11-04T09:28:03.533Z,90.65
2022-11-04T09:30:31.095Z,89.91
2022-11-04T09:32:58.777Z,89.74
2022-11-04T09:35:27.949Z,89.02
2022-11-04T09:37:55.401Z,88.66
2022-11-04T09:40:25.225Z,87.92
2022-11-04T09:43:14.694Z,86.96
2022-11-04T09:45:43.094Z,86.64
2022-11-04T09:48:33.150Z,86.88
2022-11-04T09:51:03.049Z,85.93
2022-11-04T09:53:33.087Z,85.93
2022-11-04T09:56:31.049Z,85.62
2022-11-04T09:58:58.524Z,83.53
2022-11-04T10:01:38.639Z,82.62
2022-11-04T10:04:38.590Z,81.58
2022-11-04T10:07:21.239Z,82.14
2022-11-04T10:10:23.365Z,82.26
2022-11-04T10:13:02.703Z,82.33
2022-11-04T10:15:52.076Z,82.19
2022-11-04T10:18:48.713Z,82.09
2022-11-04T10:21:46.884Z,81.35
2022-11-04T10:24:21.181Z,80.97
2022-11-04T10:27:00.773Z,79.82
2022-11-04T10:29:38.785Z,79.49
2022-11-04T10:32:22.042Z,79.33
2022-11-04T10:35:01.726Z,78.88
2022-11-04T10:37:28.874Z,78.54
2022-11-04T10:40:22.232Z,78.96
2022-11-04T10:42:50.502Z,78.52
2022-11-04T10:45:20.852Z,78.23
2022-11-04T10:47:59.514Z,78.54
2022-11-04T10:50:55.677Z,78.45
2022-11-04T10:53:36.670Z,78.72
2022-11-04T10:56:07.338Z,78.90
2022-11-04T10:58:43.488Z,78.77
2022-11-04T11:01:26.432Z,78.81
2022-11-04T11:03:54.742Z,78.69
2022-11-04T11:06:28.826Z,78.93
2022-11-04T11:09:20.169Z,79.06
2022-11-04T11:11:49.895Z,78.83
2022-11-04T11:14:29.527Z,78.44
2022-11-04T11:16:58.521Z,77.90
2022-11-04T11:19:26.381Z,78.24
2022-11-04T11:21:57.836Z,78.24
2022-11-04T11:24:27.242Z,77.45
2022-11-04T11:27:00.026Z,76.72
2022-11-04T11:29:29.247Z,76.57
2022-11-04T11:31:57.558Z,76.50
2022-11-04T11:34:27.101Z,76.24
2022-11-04T11:36:58.526Z,76.32
2022-11-04T11:39:33.076Z,76.24
2022-11-04T11:42:02.908Z,76.26
2022-11-04T11:44:44.741Z,76.10
2022-11-04T11:47:23.084Z,75.56
2022-11-04T11:50:07.448Z,75.63
2022-11-04T11:52:38.528Z,75.65
2022-11-04T11:55:29.673Z,75.79
2022-11-04T12:01:24.014Z,75.44
2022-11-04T12:09:51.092Z,74.91
2022-11-04T12:12:24.077Z,75.42
2022-11-04T12:15:00.034Z,75.45
2022-11-04T12:17:33.270Z,75.75
2022-11-04T12:20:11.699Z,75.59
2022-11-04T12:23:01.010Z,75.95
2022-11-04T12:25:49.874Z,76.15
2022-11-04T12:28:22.669Z,75.90
2022-11-04T12:31:05.068Z,75.74
2022-11-04T12:33:38.453Z,75.87
2022-11-04T12:36:12.670Z,75.55
2022-11-04T12:39:13.507Z,75.20
2022-11-04T12:44:54.808Z,75.48
2022-11-04T12:47:27.999Z,75.50
2022-11-04T12:49:58.940Z,75.11
2022-11-04T12:53:01.657Z,75.35
2022-11-04T12:55:37.243Z,75.48
2022-11-04T12:58:17.440Z,75.68
2022-11-04T13:00:48.605Z,75.95
2022-11-04T13:03:21.825Z,76.08
2022-11-04T13:06:01.911Z,76.26
2022-11-04T13:08:29.681Z,76.38
2022-11-04T13:11:02.296Z,76.28
2022-11-04T13:13:34.563Z,75.99
2022-11-04T13:16:06.971Z,76.18
2022-11-04T13:18:38.454Z,76.38
2022-11-04T13:21:09.847Z,76.25
2022-11-04T13:23:42.436Z,76.36
2022-11-04T13:26:15.643Z,76.34
2022-11-04T13:28:44.455Z,76.28
2022-11-04T13:31:15.287Z,76.23
2022-11-04T13:33:59.855Z,76.19
2022-11-04T13:36:46.463Z,76.40
2022-11-04T13:39:13.722Z,76.58
2022-11-04T13:42:13.882Z,76.65
2022-11-04T13:44:44.773Z,76.86
2022-11-04T13:47:39.156Z,76.66
2022-11-04T13:50:07.397Z,76.62
2022-11-04T13:52:36.618Z,76.65
2022-11-04T13:55:06.490Z,76.98
2022-11-04T13:57:59.808Z,76.93
2022-11-04T14:00:28.943Z,76.97
2022-11-04T14:03:01.933Z,77.00
2022-11-04T14:05:37.427Z,77.15
2022-11-04T14:08:04.579Z,77.18
2022-11-04T14:10:55.095Z,77.31
2022-11-04T14:13:31.238Z,77.47
2022-11-04T14:16:24.499Z,77.45
2022-11-04T14:18:53.701Z,77.49
2022-11-04T14:21:23.817Z,77.50
2022-11-04T14:23:56.798Z,77.48
2022-11-04T14:26:50.900Z,77.63
2022-11-04T14:29:22.620Z,77.91
2022-11-04T14:31:58.600Z,77.99
2022-11-04T14:34:35.047Z,77.96
2022-11-04T14:37:06.287Z,77.89
2022-11-04T14:39:38.494Z,78.09
2022-11-04T14:42:07.224Z,78.23
2022-11-04T14:44:50.079Z,78.35
2022-11-04T14:47:37.648Z,78.62
2022-11-04T14:50:08.863Z,78.50
2022-11-04T14:52:46.654Z,78.67
2022-11-04T14:55:16.414Z,78.78
2022-11-04T14:57:45.652Z,79.01
2022-11-04T15:00:35.857Z,79.13
2022-11-04T15:04:09.628Z,79.22
2022-11-04T15:06:11.727Z,79.30
2022-11-04T15:08:41.651Z,79.47
2022-11-04T15:11:16.852Z,79.72
2022-11-04T15:13:46.078Z,79.97
2022-11-04T15:16:26.141Z,79.93
2022-11-04T15:18:58.633Z,80.03
2022-11-04T15:21:27.324Z,80.11
2022-11-04T15:23:55.874Z,80.20
2022-11-04T15:26:31.157Z,80.40
2022-11-04T15:29:03.935Z,80.44
2022-11-04T15:31:35.258Z,80.78
2022-11-04T15:34:10.271Z,81.39
2022-11-04T15:36:42.754Z,81.94
2022-11-04T15:39:27.572Z,82.61
2022-11-04T15:42:19.959Z,83.57
2022-11-04T15:44:51.506Z,83.47
2022-11-04T15:47:18.971Z,83.86
2022-11-04T15:49:51.919Z,83.61
2022-11-04T15:52:24.533Z,84.27
2022-11-04T15:55:02.475Z,84.46
2022-11-04T15:57:34.903Z,85.05
2022-11-04T16:00:24.898Z,85.04
2022-11-04T16:02:55.621Z,85.29
2022-11-04T16:05:28.930Z,85.45
2022-11-04T16:08:14.381Z,85.66
2022-11-04T16:10:42.408Z,86.03
2022-11-04T16:13:19.035Z,86.04
2022-11-04T16:15:52.225Z,86.39
2022-11-04T16:18:24.191Z,86.65
2022-11-04T16:20:53.550Z,86.83
2022-11-04T16:23:25.552Z,86.71
2022-11-04T16:26:02.407Z,87.21
2022-11-04T16:28:31.114Z,87.38
2022-11-04T16:31:04.821Z,87.48
2022-11-04T16:33:32.591Z,87.48
2022-11-04T16:36:00.816Z,87.56
2022-11-04T16:38:28.210Z,87.88
2022-11-04T16:41:00.092Z,87.97
2022-11-04T16:43:28.969Z,87.98
2022-11-04T16:45:57.459Z,87.88
2022-11-04T16:48:25.209Z,88.04
2022-11-04T16:50:52.583Z,88.23
2022-11-04T16:53:20.850Z,88.35
2022-11-04T16:55:48.827Z,88.57
2022-11-04T16:58:19.645Z,88.77
2022-11-04T17:00:47.978Z,88.74
2022-11-04T17:03:23.484Z,89.00
2022-11-04T17:05:55.068Z,89.17
2022-11-04T17:08:26.266Z,89.33
2022-11-04T17:10:54.752Z,89.49
2022-11-04T17:13:22.618Z,89.43
2022-11-04T17:15:50.070Z,89.55
2022-11-04T17:18:18.593Z,89.71
2022-11-04T17:20:49.717Z,89.88
2022-11-04T17:23:17.849Z,90.03
2022-11-04T17:25:46.322Z,90.17
2022-11-04T17:28:15.337Z,90.44
2022-11-04T17:30:44.658Z,90.52
2022-11-04T17:33:17.097Z,90.87
2022-11-04T17:35:46.326Z,90.88
2022-11-04T17:38:14.694Z,91.14
2022-11-04T17:41:18.396Z,91.52
2022-11-04T17:44:02.076Z,91.84
2022-11-04T17:46:38.404Z,92.19
2022-11-04T17:49:10.374Z,92.47
2022-11-04T17:51:37.921Z,92.73
2022-11-04T17:54:05.693Z,93.01
2022-11-04T17:56:33.450Z,93.18
2022-11-04T17:59:04.488Z,93.50
2022-11-04T18:01:33.492Z,93.92
2022-11-04T18:04:01.560Z,94.08
2022-11-04T18:06:32.183Z,94.28
2022-11-04T18:09:00.251Z,94.56
2022-11-04T18:11:48.392Z,94.85
2022-11-04T18:14:17.345Z,95.06
2022-11-04T18:16:47.300Z,95.26
2022-11-04T18:19:15.488Z,95.67
2022-11-04T18:21:42.848Z,95.79
2022-11-04T18:24:11.267Z,96.15
2022-11-04T18:26:39.490Z,96.41
2022-11-04T18:29:07.975Z,96.93
2022-11-04T18:31:46.195Z,97.26
2022-11-04T18:34:19.728Z,97.54
2022-11-04T18:36:48.855Z,97.83
2022-11-04T18:39:18.209Z,98.18
2022-11-04T18:41:46.977Z,98.32
2022-11-04T18:44:16.886Z,98.47
2022-11-04T18:46:44.328Z,98.71
2022-11-04T18:49:13.573Z,98.85
2022-11-04T18:51:42.019Z,99.21
2022-11-04T18:54:12.807Z,99.23
2022-11-04T18:56:40.810Z,99.37
2022-11-04T18:59:13.613Z,99.49
2022-11-04T19:01:43.292Z,99.70
2022-11-04T19:04:11.594Z,99.78
2022-11-04T19:06:43.183Z,99.74
2022-11-04T19:12:19.116Z,99.90
2022-11-04T19:14:47.080Z,99.93
2022-11-04T19:17:14.326Z,100.00
2022-11-04T19:19:42.203Z,100.00
2022-11-04T19:22:11.558Z,100.00
2022-11-04T19:24:40.182Z,100.00
2022-11-04T19:27:08.566Z,100.00
2022-11-04T19:29:36.636Z,100.00
2022-11-04T19:32:06.276Z,100.00
2022-11-04T19:34:38.302Z,100.00
2022-11-04T19:37:06.177Z,100.00
2022-11-04T19:39:35.129Z,100.00
2022-11-04T19:42:21.880Z,100.00
2022-11-04T19:44:49.997Z,100.00
2022-11-04T19:47:17.939Z,100.00
2022-11-04T19:49:45.991Z,100.00
2022-11-04T19:52:14.063Z,100.00
2022-11-04T19:54:41.652Z,100.00
2022-11-04T19:57:09.600Z,100.00
2022-11-04T19:59:37.780Z,100.00
2022-11-04T20:02:07.012Z,100.00
2022-11-04T20:04:35.057Z,100.00
2022-11-04T20:07:02.997Z,100.00
2022-11-04T20:09:30.679Z,100.00
2022-11-04T20:12:17.900Z,100.00
2022-11-04T20:14:45.955Z,100.00
2022-11-04T20:17:14.028Z,100.00
2022-11-04T20:19:42.200Z,100.00
2022-11-04T20:22:11.513Z,100.00
2022-11-04T20:24:39.580Z,100.00
2022-11-04T20:27:07.643Z,100.00
2022-11-04T20:29:36.041Z,100.00
2022-11-04T20:32:04.527Z,100.00
2022-11-04T20:34:34.916Z,100.00
2022-11-04T20:37:03.504Z,100.00
2022-11-04T20:39:31.984Z,100.00
2022-11-04T20:41:59.240Z,100.00
2022-11-04T20:44:26.555Z,100.00
2022-11-04T20:46:55.757Z,100.00
2022-11-04T20:49:23.866Z,100.00
2022-11-04T20:51:55.595Z,100.00
2022-11-04T20:54:23.901Z,100.00
2022-11-04T20:56:51.464Z,100.00
2022-11-04T20:59:19.518Z,100.00
2022-11-04T21:01:49.301Z,100.00
2022-11-04T21:04:19.558Z,100.00
2022-11-04T21:06:51.356Z,100.00
2022-11-04T21:09:20.472Z,100.00
2022-11-04T21:11:48.445Z,100.00
2022-11-04T21:14:17.994Z,100.00
2022-11-04T21:16:45.993Z,100.00
2022-11-04T21:19:15.560Z,100.00
2022-11-04T21:21:44.644Z,100.00
2022-11-04T21:24:14.509Z,100.00
2022-11-04T21:26:43.432Z,100.00
2022-11-04T21:29:18.196Z,100.00
2022-11-04T21:31:47.717Z,100.00
2022-11-04T21:34:16.070Z,100.00
2022-11-04T21:36:43.840Z,100.00
2022-11-04T21:39:12.086Z,100.00
2022-11-04T21:41:39.552Z,100.00
2022-11-04T21:44:12.138Z,100.00
2022-11-04T21:46:39.901Z,100.00
2022-11-04T21:49:08.079Z,100.00
2022-11-04T21:51:35.943Z,100.00
2022-11-04T21:54:07.174Z,100.00
2022-11-04T21:56:34.950Z,100.00
2022-11-04T21:59:02.639Z,100.00
2022-11-04T22:01:31.324Z,100.00
2022-11-04T22:04:01.215Z,100.00
2022-11-04T22:06:35.540Z,100.00
2022-11-04T22:09:05.038Z,100.00
2022-11-04T22:11:33.538Z,100.00
2022-11-04T22:14:04.198Z,100.00
2022-11-04T22:16:35.210Z,100.00
2022-11-04T22:19:04.766Z,100.00
2022-11-04T22:21:33.200Z,100.00
2022-11-04T22:24:01.360Z,100.00
2022-11-04T22:26:31.775Z,100.00
2022-11-04T22:29:00.050Z,100.00
2022-11-04T22:31:30.117Z,100.00
2022-11-04T22:33:58.130Z,100.00
2022-11-04T22:36:26.377Z,100.00
2022-11-04T22:38:53.793Z,100.00
2022-11-04T22:41:23.155Z,100.00
2022-11-04T22:43:50.216Z,100.00
2022-11-04T22:46:35.611Z,100.00
2022-11-04T22:49:02.741Z,100.00
2022-11-04T22:51:31.752Z,100.00
2022-11-04T22:54:04.519Z,100.00
2022-11-04T22:56:32.090Z,100.00
2022-11-04T22:59:00.718Z,100.00
2022-11-04T23:01:28.190Z,100.00
2022-11-04T23:03:55.576Z,100.00
2022-11-04T23:06:22.849Z,100.00
2022-11-04T23:08:52.145Z,100.00
2022-11-04T23:11:45.278Z,100.00
2022-11-04T23:14:32.634Z,100.00
2022-11-04T23:17:19.110Z,100.00
2022-11-04T23:19:46.360Z,100.00
2022-11-04T23:22:32.146Z,100.00
2022-11-04T23:25:11.489Z,100.00
2022-11-04T23:28:05.782Z,100.00
2022-11-04T23:30:43.074Z,100.00
2022-11-04T23:33:12.406Z,100.00
2022-11-04T23:36:04.780Z,100.00
2022-11-04T23:38:32.990Z,100.00
2022-11-04T23:41:22.041Z,100.00
2022-11-04T23:43:49.393Z,100.00
2022-11-04T23:46:42.330Z,100.00
2022-11-04T23:49:30.796Z,100.00
2022-11-04T23:52:17.011Z,100.00
2022-11-04T23:55:03.199Z,100.00
2022-11-04T23:57:49.093Z,100.00
